createdAt,value
2017-03-15T00:00:26.263Z,0
2017-03-15T00:01:06.764Z,0
2017-03-15T00:01:47.276Z,0
2017-03-15T00:02:27.770Z,0
2017-03-15T00:03:08.293Z,0
2017-03-15T00:03:48.742Z,0
2017-03-15T00:04:29.233Z,0
2017-03-15T00:05:09.746Z,0
2017-03-15T00:05:50.224Z,0
2017-03-15T00:06:30.722Z,0
2017-03-15T00:07:11.203Z,0
2017-03-15T00:07:51.713Z,0
2017-03-15T00:08:32.230Z,0
2017-03-15T00:09:12.702Z,0
2017-03-15T00:09:53.171Z,0
2017-03-15T00:10:33.710Z,0
2017-03-15T00:11:14.198Z,0
2017-03-15T00:11:54.674Z,0
2017-03-15T00:12:35.197Z,0
2017-03-15T00:13:15.741Z,0
2017-03-15T00:13:56.195Z,0
2017-03-15T00:14:36.691Z,0
2017-03-15T00:15:17.210Z,0
2017-03-15T00:15:57.746Z,0
2017-03-15T00:16:38.219Z,0
2017-03-15T00:17:18.766Z,0
2017-03-15T00:17:59.261Z,0
2017-03-15T00:18:39.740Z,0
2017-03-15T00:19:20.251Z,0
2017-03-15T00:20:00.737Z,0
2017-03-15T00:20:41.239Z,0
2017-03-15T00:21:21.728Z,0
2017-03-15T00:22:02.196Z,0
2017-03-15T00:22:42.685Z,0
2017-03-15T00:23:23.179Z,0
2017-03-15T00:24:03.691Z,0
2017-03-15T00:24:44.170Z,0
2017-03-15T00:25:24.701Z,0
2017-03-15T00:26:05.197Z,0
2017-03-15T00:26:45.691Z,0
2017-03-15T00:27:26.146Z,0
2017-03-15T00:28:06.643Z,0
2017-03-15T00:28:47.135Z,0
2017-03-15T00:29:27.614Z,0
2017-03-15T00:30:08.108Z,0
2017-03-15T00:30:48.621Z,0
2017-03-15T00:31:29.069Z,0
2017-03-15T00:32:09.610Z,0
2017-03-15T00:32:50.064Z,0
2017-03-15T00:33:30.586Z,0
2017-03-15T00:34:11.062Z,0
2017-03-15T00:34:51.562Z,0
2017-03-15T00:35:32.043Z,0
2017-03-15T00:36:12.543Z,0
2017-03-15T00:36:53.050Z,0
2017-03-15T00:37:33.519Z,0
2017-03-15T00:38:14.043Z,0
2017-03-15T00:38:54.538Z,0
2017-03-15T00:39:35.051Z,0
2017-03-15T00:40:15.510Z,0
2017-03-15T00:40:56.045Z,0
2017-03-15T00:41:36.534Z,0
2017-03-15T00:42:17.036Z,0
2017-03-15T00:42:57.527Z,0
2017-03-15T00:43:38.008Z,0
2017-03-15T00:44:18.524Z,0
2017-03-15T00:44:59.018Z,0
2017-03-15T00:45:39.450Z,0
2017-03-15T00:46:19.990Z,0
2017-03-15T00:47:00.446Z,0
2017-03-15T00:47:40.943Z,0
2017-03-15T00:48:21.443Z,0
2017-03-15T00:49:01.894Z,0
2017-03-15T00:49:42.370Z,0
2017-03-15T00:50:22.860Z,0
2017-03-15T00:51:03.361Z,0
2017-03-15T00:51:43.900Z,0
2017-03-15T00:52:24.365Z,0
2017-03-15T00:53:04.866Z,0
2017-03-15T00:53:45.335Z,0
2017-03-15T00:54:25.851Z,0
2017-03-15T00:55:06.337Z,0
2017-03-15T00:55:46.887Z,0
2017-03-15T00:56:27.362Z,0
2017-03-15T00:57:07.850Z,0
2017-03-15T00:57:48.423Z,0
2017-03-15T00:58:28.930Z,0
2017-03-15T00:59:09.394Z,0
2017-03-15T00:59:49.945Z,0
2017-03-15T01:00:30.407Z,0
2017-03-15T01:01:10.869Z,0
2017-03-15T01:01:51.422Z,0
2017-03-15T01:02:31.889Z,0
2017-03-15T01:03:12.420Z,0
2017-03-15T01:03:52.893Z,0
2017-03-15T01:04:33.425Z,0
2017-03-15T01:05:13.927Z,0
2017-03-15T01:05:54.431Z,0
2017-03-15T01:06:34.927Z,0
2017-03-15T01:07:15.402Z,0
2017-03-15T01:07:55.913Z,0
2017-03-15T01:08:36.396Z,0
2017-03-15T01:09:16.873Z,0
2017-03-15T01:09:57.373Z,0
2017-03-15T01:10:37.866Z,0
2017-03-15T01:11:18.389Z,0
2017-03-15T01:11:58.866Z,0
2017-03-15T01:12:39.343Z,0
2017-03-15T01:13:19.866Z,0
2017-03-15T01:14:00.336Z,0
2017-03-15T01:14:40.852Z,0
2017-03-15T01:15:21.316Z,0
2017-03-15T01:16:01.830Z,0
2017-03-15T01:16:42.338Z,0
2017-03-15T01:17:22.792Z,0
2017-03-15T01:18:03.308Z,0
2017-03-15T01:18:43.831Z,0
2017-03-15T01:19:24.327Z,0
2017-03-15T01:20:04.804Z,0
2017-03-15T01:20:45.268Z,0
2017-03-15T01:21:25.788Z,0
2017-03-15T01:22:06.233Z,0
2017-03-15T01:22:50.440Z,0
2017-03-15T01:23:32.879Z,0
2017-03-15T01:24:17.058Z,0
2017-03-15T01:25:00.111Z,0
2017-03-15T01:27:13.222Z,0
2017-03-15T01:27:53.702Z,0
2017-03-15T01:28:34.220Z,0
2017-03-15T01:29:14.726Z,0
2017-03-15T01:29:55.238Z,0
2017-03-15T01:30:35.698Z,0
2017-03-15T01:31:16.196Z,0
2017-03-15T01:31:56.691Z,0
2017-03-15T01:32:37.210Z,0
2017-03-15T01:33:17.644Z,0
2017-03-15T01:33:58.144Z,0
2017-03-15T01:34:38.613Z,0
2017-03-15T01:35:19.135Z,0
2017-03-15T01:35:59.617Z,0
2017-03-15T01:36:40.143Z,0
2017-03-15T01:37:20.586Z,0
2017-03-15T01:38:01.066Z,0
2017-03-15T01:38:41.575Z,0
2017-03-15T01:39:22.065Z,0
2017-03-15T01:40:02.557Z,0
2017-03-15T01:40:43.107Z,0
2017-03-15T01:41:23.590Z,0
2017-03-15T01:42:04.040Z,0
2017-03-15T01:42:44.530Z,0
2017-03-15T01:43:25.011Z,0
2017-03-15T01:44:05.511Z,0
2017-03-15T01:44:46.011Z,0
2017-03-15T01:45:26.468Z,0
2017-03-15T01:46:06.969Z,0
2017-03-15T01:46:47.455Z,0
2017-03-15T01:47:27.919Z,0
2017-03-15T01:48:08.490Z,0
2017-03-15T01:48:48.960Z,0
2017-03-15T01:49:29.425Z,0
2017-03-15T01:50:09.916Z,0
2017-03-15T01:50:50.430Z,0
2017-03-15T01:51:30.882Z,0
2017-03-15T01:52:11.399Z,0
2017-03-15T01:52:51.887Z,0
2017-03-15T01:53:32.350Z,0
2017-03-15T01:54:12.879Z,0
2017-03-15T01:54:53.313Z,0
2017-03-15T01:55:33.830Z,0
2017-03-15T01:56:14.329Z,0
2017-03-15T01:56:54.828Z,0
2017-03-15T01:57:35.289Z,0
2017-03-15T01:58:15.783Z,0
2017-03-15T01:58:56.255Z,0
2017-03-15T01:59:36.810Z,0
2017-03-15T02:00:17.273Z,0
2017-03-15T02:00:57.745Z,0
2017-03-15T02:01:38.240Z,0
2017-03-15T02:02:18.774Z,0
2017-03-15T02:02:59.274Z,0
2017-03-15T02:03:39.759Z,0
2017-03-15T02:04:21.100Z,0
2017-03-15T02:05:00.740Z,0
2017-03-15T02:05:41.237Z,0
2017-03-15T02:06:21.733Z,0
2017-03-15T02:07:02.225Z,0
2017-03-15T02:07:43.599Z,0
2017-03-15T02:08:23.235Z,0
2017-03-15T02:09:03.729Z,0
2017-03-15T02:09:44.212Z,0
2017-03-15T02:10:24.709Z,0
2017-03-15T02:11:05.226Z,0
2017-03-15T02:11:45.700Z,0
2017-03-15T02:12:26.195Z,0
2017-03-15T02:13:07.226Z,0
2017-03-15T02:13:47.633Z,0
2017-03-15T02:14:28.156Z,0
2017-03-15T02:15:08.625Z,0
2017-03-15T02:15:49.115Z,0
2017-03-15T02:16:29.611Z,0
2017-03-15T02:17:10.085Z,0
2017-03-15T02:17:50.596Z,0
2017-03-15T02:18:31.073Z,0
2017-03-15T02:19:11.596Z,0
2017-03-15T02:19:52.116Z,0
2017-03-15T02:20:32.616Z,0
2017-03-15T02:21:13.106Z,0
2017-03-15T02:21:53.630Z,0
2017-03-15T02:22:34.099Z,0
2017-03-15T02:23:17.561Z,0
2017-03-15T02:23:57.744Z,0
2017-03-15T02:24:38.222Z,0
2017-03-15T02:25:18.737Z,0
2017-03-15T02:25:59.214Z,0
2017-03-15T02:26:39.721Z,0
2017-03-15T02:27:20.209Z,0
2017-03-15T02:28:00.724Z,0
2017-03-15T02:28:41.206Z,0
2017-03-15T02:29:21.724Z,0
2017-03-15T02:30:02.204Z,0
2017-03-15T02:30:42.717Z,0
2017-03-15T02:31:23.201Z,0
2017-03-15T02:32:03.706Z,0
2017-03-15T02:32:44.254Z,0
2017-03-15T02:33:24.688Z,0
2017-03-15T02:34:05.181Z,0
2017-03-15T02:34:45.692Z,0
2017-03-15T02:35:26.201Z,0
2017-03-15T02:36:06.697Z,0
2017-03-15T02:36:47.201Z,0
2017-03-15T02:37:27.684Z,0
2017-03-15T02:38:08.178Z,0
2017-03-15T02:38:48.663Z,0
2017-03-15T02:39:29.156Z,0
2017-03-15T02:40:09.676Z,0
2017-03-15T02:40:50.195Z,0
2017-03-15T02:41:30.939Z,0
2017-03-15T02:42:11.511Z,0
2017-03-15T02:42:52.766Z,0
2017-03-15T02:43:33.678Z,0
2017-03-15T02:44:14.521Z,0
2017-03-15T02:44:55.028Z,0
2017-03-15T02:45:35.544Z,0
2017-03-15T02:46:16.027Z,0
2017-03-15T02:46:56.519Z,0
2017-03-15T02:47:37.132Z,0
2017-03-15T02:48:17.625Z,0
2017-03-15T02:48:58.099Z,0
2017-03-15T02:49:38.625Z,0
2017-03-15T02:50:19.113Z,0
2017-03-15T02:50:59.593Z,0
2017-03-15T02:51:40.083Z,0
2017-03-15T02:52:21.070Z,0
2017-03-15T02:53:02.420Z,0
2017-03-15T02:53:42.953Z,0
2017-03-15T02:54:23.731Z,0
2017-03-15T02:55:04.270Z,0
2017-03-15T02:55:44.739Z,0
2017-03-15T02:56:25.302Z,0
2017-03-15T02:57:05.786Z,0
2017-03-15T02:57:46.294Z,0
2017-03-15T02:58:26.829Z,0
2017-03-15T02:59:07.252Z,0
2017-03-15T02:59:47.745Z,0
2017-03-15T03:00:28.267Z,0
2017-03-15T03:01:08.740Z,0
2017-03-15T03:01:49.320Z,0
2017-03-15T03:02:29.810Z,0
2017-03-15T03:03:10.280Z,0
2017-03-15T03:03:50.809Z,0
2017-03-15T03:04:31.336Z,0
2017-03-15T03:05:11.809Z,0
2017-03-15T03:05:52.331Z,0
2017-03-15T03:06:32.782Z,0
2017-03-15T03:07:13.326Z,0
2017-03-15T03:07:53.814Z,0
2017-03-15T03:08:34.411Z,0
2017-03-15T03:09:14.798Z,0
2017-03-15T03:09:55.238Z,0
2017-03-15T03:10:35.710Z,0
2017-03-15T03:11:16.247Z,0
2017-03-15T03:11:56.797Z,0
2017-03-15T03:12:37.231Z,0
2017-03-15T03:13:17.733Z,0
2017-03-15T03:13:58.266Z,0
2017-03-15T03:14:38.724Z,0
2017-03-15T03:15:19.477Z,0
2017-03-15T03:15:59.958Z,0
2017-03-15T03:16:40.450Z,0
2017-03-15T03:17:20.926Z,0
2017-03-15T03:18:01.430Z,0
2017-03-15T03:18:41.893Z,0
2017-03-15T03:19:22.979Z,0
2017-03-15T03:20:03.491Z,0
2017-03-15T03:20:43.981Z,0
2017-03-15T03:21:24.473Z,0
2017-03-15T03:22:04.980Z,0
2017-03-15T03:22:45.485Z,0
2017-03-15T03:23:26.016Z,0
2017-03-15T03:24:06.558Z,0
2017-03-15T03:24:47.053Z,0
2017-03-15T03:25:27.486Z,0
2017-03-15T03:26:07.976Z,0
2017-03-15T03:26:48.490Z,0
2017-03-15T03:27:29.117Z,0
2017-03-15T03:28:09.608Z,0
2017-03-15T03:28:50.089Z,0
2017-03-15T03:29:30.640Z,0
2017-03-15T03:30:11.044Z,0
2017-03-15T03:30:51.581Z,0
2017-03-15T03:31:32.094Z,0
2017-03-15T03:32:12.574Z,0
2017-03-15T03:32:53.086Z,0
2017-03-15T03:33:33.563Z,0
2017-03-15T03:34:14.062Z,0
2017-03-15T03:34:54.563Z,0
2017-03-15T03:35:35.033Z,0
2017-03-15T03:36:15.522Z,0
2017-03-15T03:36:56.031Z,0
2017-03-15T03:37:36.572Z,0
2017-03-15T03:38:17.099Z,0
2017-03-15T03:38:57.639Z,0
2017-03-15T03:39:38.140Z,0
2017-03-15T03:40:18.594Z,0
2017-03-15T03:40:59.102Z,0
2017-03-15T03:41:39.570Z,0
2017-03-15T03:42:20.063Z,0
2017-03-15T03:43:00.575Z,0
2017-03-15T03:43:41.048Z,0
2017-03-15T03:44:21.542Z,0
2017-03-15T03:45:02.030Z,0
2017-03-15T03:45:42.550Z,0
2017-03-15T03:46:23.019Z,0
2017-03-15T03:47:03.490Z,0
2017-03-15T03:47:43.990Z,0
2017-03-15T03:48:24.491Z,0
2017-03-15T03:49:04.964Z,0
2017-03-15T03:49:45.466Z,0
2017-03-15T03:50:25.934Z,0
2017-03-15T03:51:06.454Z,0
2017-03-15T03:51:46.942Z,0
2017-03-15T03:52:27.410Z,0
2017-03-15T03:53:07.941Z,0
2017-03-15T03:53:48.437Z,0
2017-03-15T03:54:28.885Z,0
2017-03-15T03:55:09.407Z,0
2017-03-15T03:55:49.864Z,0
2017-03-15T03:56:30.376Z,0
2017-03-15T03:57:10.864Z,0
2017-03-15T03:57:51.390Z,0
2017-03-15T03:58:31.859Z,0
2017-03-15T03:59:12.395Z,0
2017-03-15T03:59:52.930Z,0
2017-03-15T04:00:33.383Z,0
2017-03-15T04:01:13.904Z,0
2017-03-15T04:01:54.370Z,0
2017-03-15T04:02:34.861Z,0
2017-03-15T04:03:15.352Z,0
2017-03-15T04:03:55.819Z,0
2017-03-15T04:04:36.304Z,0
2017-03-15T04:05:16.880Z,0
2017-03-15T04:05:57.350Z,0
2017-03-15T04:06:37.861Z,0
2017-03-15T04:07:18.333Z,0
2017-03-15T04:07:58.790Z,0
2017-03-15T04:08:39.280Z,0
2017-03-15T04:09:19.762Z,0
2017-03-15T04:10:00.256Z,0
2017-03-15T04:10:40.792Z,0
2017-03-15T04:11:21.253Z,0
2017-03-15T04:12:01.846Z,0
2017-03-15T04:12:42.319Z,0
2017-03-15T04:13:22.796Z,0
2017-03-15T04:14:03.265Z,0
2017-03-15T04:14:43.749Z,0
2017-03-15T04:15:24.248Z,0
2017-03-15T04:16:04.740Z,0
2017-03-15T04:16:45.240Z,0
2017-03-15T04:17:25.735Z,0
2017-03-15T04:18:06.192Z,0
2017-03-15T04:18:46.723Z,0
2017-03-15T04:19:27.410Z,0
2017-03-15T04:20:07.911Z,0
2017-03-15T04:20:48.482Z,0
2017-03-15T04:21:29.043Z,0
2017-03-15T04:22:09.504Z,0
2017-03-15T04:22:49.970Z,0
2017-03-15T04:23:30.503Z,0
2017-03-15T04:24:11.037Z,0
2017-03-15T04:24:51.550Z,0
2017-03-15T04:25:32.016Z,0
2017-03-15T04:26:12.518Z,0
2017-03-15T04:26:53.022Z,0
2017-03-15T04:27:33.503Z,0
2017-03-15T04:28:13.991Z,0
2017-03-15T04:28:54.531Z,0
2017-03-15T04:29:35.024Z,0
2017-03-15T04:30:15.466Z,0
2017-03-15T04:30:55.991Z,0
2017-03-15T04:31:36.476Z,0
2017-03-15T04:32:16.992Z,0
2017-03-15T04:32:57.458Z,0
2017-03-15T04:33:37.930Z,0
2017-03-15T04:34:18.453Z,0
2017-03-15T04:34:58.940Z,0
2017-03-15T04:35:39.405Z,0
2017-03-15T04:36:19.966Z,0
2017-03-15T04:37:00.413Z,0
2017-03-15T04:37:40.933Z,0
2017-03-15T04:38:21.429Z,0
2017-03-15T04:39:01.917Z,0
2017-03-15T04:39:42.416Z,0
2017-03-15T04:40:22.885Z,0
2017-03-15T04:41:03.508Z,0
2017-03-15T04:41:43.923Z,0
2017-03-15T04:42:24.407Z,0
2017-03-15T04:43:05.140Z,0
2017-03-15T04:43:45.601Z,0
2017-03-15T04:44:26.076Z,0
2017-03-15T04:45:06.597Z,0
2017-03-15T04:45:47.090Z,0
2017-03-15T04:46:27.553Z,0
2017-03-15T04:47:08.068Z,0
2017-03-15T04:47:48.586Z,0
2017-03-15T04:48:29.100Z,0
2017-03-15T04:49:09.592Z,0
2017-03-15T04:49:50.150Z,0
2017-03-15T04:50:30.612Z,0
2017-03-15T04:51:11.165Z,0
2017-03-15T04:51:51.657Z,0
2017-03-15T04:52:32.167Z,0
2017-03-15T04:53:12.735Z,0
2017-03-15T04:53:53.186Z,0
2017-03-15T04:54:33.827Z,0
2017-03-15T04:55:14.204Z,0
2017-03-15T04:55:54.701Z,0
2017-03-15T04:56:35.272Z,0
2017-03-15T04:57:15.808Z,0
2017-03-15T04:57:56.290Z,0
2017-03-15T04:58:36.767Z,0
2017-03-15T04:59:17.314Z,0
2017-03-15T04:59:57.810Z,0
2017-03-15T05:00:38.367Z,0
2017-03-15T05:01:18.820Z,0
2017-03-15T05:01:59.391Z,0
2017-03-15T05:02:39.852Z,0
2017-03-15T05:03:20.324Z,0
2017-03-15T05:04:01.001Z,0
2017-03-15T05:04:41.318Z,0
2017-03-15T05:05:21.836Z,0
2017-03-15T05:06:02.364Z,0
2017-03-15T05:06:42.815Z,0
2017-03-15T05:07:23.327Z,0
2017-03-15T05:08:03.822Z,0
2017-03-15T05:08:44.365Z,0
2017-03-15T05:09:24.849Z,0
2017-03-15T05:10:05.339Z,0
2017-03-15T05:10:45.833Z,0
2017-03-15T05:11:26.335Z,0
2017-03-15T05:12:07.686Z,0
2017-03-15T05:12:48.141Z,4
2017-03-15T05:13:28.662Z,4
2017-03-15T05:14:09.199Z,4
2017-03-15T05:14:49.657Z,4
2017-03-15T05:15:30.177Z,0
2017-03-15T05:16:10.687Z,4
2017-03-15T05:16:51.165Z,4
2017-03-15T05:17:31.648Z,4
2017-03-15T05:18:12.138Z,4
2017-03-15T05:18:52.633Z,4
2017-03-15T05:19:33.111Z,8
2017-03-15T05:20:13.655Z,4
2017-03-15T05:20:54.173Z,8
2017-03-15T05:21:34.653Z,8
2017-03-15T05:22:15.142Z,8
2017-03-15T05:22:55.640Z,12
2017-03-15T05:23:36.130Z,12
2017-03-15T05:24:16.637Z,12
2017-03-15T05:24:57.106Z,16
2017-03-15T05:25:37.632Z,16
2017-03-15T05:26:18.124Z,16
2017-03-15T05:26:58.769Z,20
2017-03-15T05:27:39.612Z,24
2017-03-15T05:28:19.785Z,24
2017-03-15T05:29:00.353Z,32
2017-03-15T05:29:40.928Z,32
2017-03-15T05:30:21.412Z,36
2017-03-15T05:31:01.982Z,40
2017-03-15T05:31:42.418Z,44
2017-03-15T05:32:22.918Z,44
2017-03-15T05:33:03.412Z,52
2017-03-15T05:33:44.033Z,52
2017-03-15T05:34:24.393Z,56
2017-03-15T05:35:05.092Z,60
2017-03-15T05:35:45.652Z,64
2017-03-15T05:36:26.578Z,68
2017-03-15T05:37:07.887Z,72
2017-03-15T05:37:48.678Z,76
2017-03-15T05:38:29.228Z,84
2017-03-15T05:39:09.662Z,88
2017-03-15T05:39:50.173Z,100
2017-03-15T05:40:30.615Z,104
2017-03-15T05:41:11.124Z,112
2017-03-15T05:41:51.600Z,120
2017-03-15T05:42:32.121Z,132
2017-03-15T05:43:12.603Z,144
2017-03-15T05:43:53.138Z,152
2017-03-15T05:44:33.610Z,160
2017-03-15T05:45:14.092Z,176
2017-03-15T05:45:54.540Z,192
2017-03-15T05:46:35.059Z,204
2017-03-15T05:47:15.657Z,220
2017-03-15T05:47:56.039Z,232
2017-03-15T05:48:36.562Z,248
2017-03-15T05:49:17.062Z,264
2017-03-15T05:49:57.567Z,280
2017-03-15T05:50:38.076Z,296
2017-03-15T05:51:18.609Z,308
2017-03-15T05:51:59.097Z,324
2017-03-15T05:52:39.611Z,340
2017-03-15T05:53:20.117Z,356
2017-03-15T05:54:00.647Z,372
2017-03-15T05:54:41.201Z,388
2017-03-15T05:55:21.647Z,408
2017-03-15T05:56:02.117Z,424
2017-03-15T05:56:42.645Z,444
2017-03-15T05:57:23.103Z,456
2017-03-15T05:58:03.601Z,476
2017-03-15T05:58:44.097Z,492
2017-03-15T05:59:24.591Z,504
2017-03-15T06:00:05.623Z,520
2017-03-15T06:00:46.138Z,536
2017-03-15T06:01:26.602Z,552
2017-03-15T06:02:07.695Z,564
2017-03-15T06:02:48.553Z,580
2017-03-15T06:03:29.130Z,596
2017-03-15T06:04:09.561Z,612
2017-03-15T06:04:50.068Z,624
2017-03-15T06:05:30.488Z,640
2017-03-15T06:06:11.023Z,656
2017-03-15T06:06:51.483Z,668
2017-03-15T06:07:32.011Z,688
2017-03-15T06:08:12.515Z,712
2017-03-15T06:08:53.951Z,732
2017-03-15T06:09:34.470Z,760
2017-03-15T06:10:14.962Z,784
2017-03-15T06:10:55.472Z,808
2017-03-15T06:11:35.939Z,832
2017-03-15T06:12:16.401Z,856
2017-03-15T06:12:56.947Z,884
2017-03-15T06:13:37.492Z,908
2017-03-15T06:14:17.971Z,924
2017-03-15T06:14:58.489Z,944
2017-03-15T06:15:39.015Z,960
2017-03-15T06:16:19.471Z,972
2017-03-15T06:17:00.036Z,992
2017-03-15T06:17:40.821Z,1016
2017-03-15T06:18:21.875Z,1032
2017-03-15T06:19:02.381Z,1048
2017-03-15T06:19:42.860Z,1060
2017-03-15T06:20:23.835Z,1072
2017-03-15T06:21:07.198Z,1080
2017-03-15T06:21:47.684Z,1096
2017-03-15T06:22:28.171Z,1112
2017-03-15T06:23:09.039Z,1132
2017-03-15T06:23:49.574Z,1160
2017-03-15T06:24:33.273Z,1192
2017-03-15T06:25:13.777Z,1224
2017-03-15T06:26:02.068Z,1260
2017-03-15T06:26:42.533Z,1280
2017-03-15T06:27:22.996Z,1300
2017-03-15T06:28:03.542Z,1328
2017-03-15T06:28:44.588Z,1360
2017-03-15T06:29:25.043Z,1400
2017-03-15T06:30:05.707Z,1456
2017-03-15T06:30:46.165Z,1532
2017-03-15T06:31:26.662Z,1616
2017-03-15T06:32:07.141Z,1688
2017-03-15T06:32:47.683Z,1764
2017-03-15T06:33:28.190Z,1832
2017-03-15T06:34:08.692Z,1912
2017-03-15T06:34:49.222Z,1984
2017-03-15T06:35:29.675Z,2036
2017-03-15T06:36:10.168Z,2088
2017-03-15T06:36:50.678Z,2148
2017-03-15T06:37:31.143Z,2212
2017-03-15T06:38:11.638Z,2248
2017-03-15T06:38:52.238Z,2260
2017-03-15T06:39:32.787Z,2260
2017-03-15T06:40:13.907Z,2268
2017-03-15T06:40:54.379Z,2292
2017-03-15T06:41:34.883Z,2320
2017-03-15T06:42:16.180Z,2352
2017-03-15T06:42:55.829Z,2392
2017-03-15T06:43:36.368Z,2428
2017-03-15T06:44:16.835Z,2460
2017-03-15T06:44:57.337Z,2488
2017-03-15T06:45:37.833Z,2508
2017-03-15T06:46:18.341Z,2516
2017-03-15T06:46:58.891Z,2532
2017-03-15T06:49:18.937Z,2376
2017-03-15T06:49:59.435Z,2340
2017-03-15T06:50:39.926Z,2328
2017-03-15T06:51:20.435Z,2316
2017-03-15T06:52:00.966Z,2280
2017-03-15T06:52:41.651Z,2264
2017-03-15T06:53:22.135Z,2288
2017-03-15T06:54:02.634Z,2328
2017-03-15T06:54:44.166Z,2320
2017-03-15T06:55:24.602Z,2276
2017-03-15T06:56:12.664Z,2280
2017-03-15T06:56:53.340Z,2372
2017-03-15T06:57:33.932Z,2404
2017-03-15T06:58:16.173Z,2400
2017-03-15T06:59:03.539Z,2524
2017-03-15T06:59:42.457Z,2684
2017-03-15T07:00:24.047Z,2816
2017-03-15T07:01:07.705Z,2932
2017-03-15T07:01:48.200Z,2832
2017-03-15T07:02:29.683Z,2776
2017-03-15T07:03:12.034Z,2808
2017-03-15T07:03:52.551Z,2940
2017-03-15T07:04:36.469Z,3164
2017-03-15T07:05:18.485Z,3268
2017-03-15T07:06:02.270Z,3248
2017-03-15T07:06:44.266Z,3244
2017-03-15T07:07:25.064Z,3412
2017-03-15T07:08:06.525Z,3432
2017-03-15T07:08:47.028Z,3292
2017-03-15T07:09:27.518Z,3056
2017-03-15T07:10:08.051Z,2916
2017-03-15T07:10:48.717Z,2836
2017-03-15T07:11:29.168Z,2884
2017-03-15T07:12:09.705Z,2824
2017-03-15T07:12:51.809Z,2828
2017-03-15T07:13:33.997Z,2836
2017-03-15T07:14:14.514Z,2884
2017-03-15T07:14:59.817Z,2896
2017-03-15T07:15:40.450Z,2932
2017-03-15T07:16:21.136Z,3056
2017-03-15T07:17:01.766Z,3280
2017-03-15T07:17:42.304Z,3396
2017-03-15T07:18:22.898Z,3416
2017-03-15T07:19:03.414Z,3360
2017-03-15T07:19:43.957Z,3152
2017-03-15T07:20:24.421Z,2900
2017-03-15T07:21:04.910Z,2704
2017-03-15T07:21:45.450Z,2676
2017-03-15T07:22:25.995Z,2828
2017-03-15T07:23:06.506Z,3024
2017-03-15T07:23:47.013Z,3200
2017-03-15T07:24:27.534Z,3320
2017-03-15T07:25:08.091Z,3352
2017-03-15T07:25:48.602Z,3336
2017-03-15T07:26:29.114Z,3376
2017-03-15T07:27:09.635Z,3328
2017-03-15T07:27:50.110Z,3220
2017-03-15T07:28:30.653Z,3264
2017-03-15T07:29:11.152Z,3240
2017-03-15T07:29:51.634Z,3140
2017-03-15T07:30:32.173Z,3076
2017-03-15T07:31:12.672Z,3080
2017-03-15T07:31:53.237Z,3320
2017-03-15T07:32:33.759Z,3576
2017-03-15T07:33:14.319Z,3752
2017-03-15T07:33:54.792Z,3764
2017-03-15T07:34:35.333Z,3856
2017-03-15T07:35:15.846Z,4048
2017-03-15T07:35:56.351Z,4280
2017-03-15T07:38:11.225Z,5068
2017-03-15T07:38:51.749Z,5240
2017-03-15T07:39:32.234Z,5328
2017-03-15T07:40:12.771Z,5336
2017-03-15T07:40:53.232Z,5240
2017-03-15T07:41:33.767Z,5136
2017-03-15T07:42:14.271Z,4948
2017-03-15T07:42:54.779Z,4748
2017-03-15T07:43:35.328Z,4644
2017-03-15T07:44:15.826Z,4576
2017-03-15T07:44:56.409Z,4492
2017-03-15T07:45:36.890Z,4440
2017-03-15T07:46:17.380Z,4392
2017-03-15T07:46:57.890Z,4360
2017-03-15T07:47:38.412Z,4384
2017-03-15T07:48:18.923Z,4460
2017-03-15T07:48:59.656Z,4656
2017-03-15T07:49:40.226Z,4800
2017-03-15T07:50:23.830Z,4852
2017-03-15T07:51:04.326Z,4904
2017-03-15T07:51:44.833Z,4928
2017-03-15T07:52:25.359Z,4996
2017-03-15T07:53:05.850Z,5056
2017-03-15T07:53:46.394Z,4912
2017-03-15T07:54:26.877Z,4604
2017-03-15T07:55:07.389Z,4284
2017-03-15T07:55:47.898Z,4000
2017-03-15T07:56:30.284Z,3916
2017-03-15T07:57:10.788Z,3912
2017-03-15T07:57:51.282Z,3964
2017-03-15T07:58:33.397Z,4088
2017-03-15T07:59:13.872Z,4112
2017-03-15T07:59:59.604Z,4048
2017-03-15T08:00:40.108Z,4024
2017-03-15T08:01:21.682Z,4008
2017-03-15T08:02:02.197Z,4052
2017-03-15T08:02:42.690Z,4228
2017-03-15T08:03:23.180Z,4344
2017-03-15T08:04:03.683Z,4228
2017-03-15T08:04:45.003Z,4164
2017-03-15T08:05:24.680Z,4260
2017-03-15T08:06:05.169Z,4292
2017-03-15T08:06:45.683Z,4476
2017-03-15T08:07:26.192Z,4668
2017-03-15T08:08:06.692Z,4728
2017-03-15T08:08:47.182Z,4628
2017-03-15T08:09:27.711Z,4668
2017-03-15T08:10:08.201Z,4684
2017-03-15T08:10:48.708Z,4812
2017-03-15T08:11:29.208Z,4880
2017-03-15T08:12:09.713Z,4860
2017-03-15T08:12:50.238Z,4852
2017-03-15T08:13:30.763Z,4904
2017-03-15T08:14:11.249Z,4940
2017-03-15T08:14:51.757Z,4988
2017-03-15T08:15:32.273Z,4812
2017-03-15T08:16:12.763Z,4748
2017-03-15T08:16:53.276Z,4560
2017-03-15T08:17:33.761Z,4628
2017-03-15T08:18:14.258Z,4812
2017-03-15T08:18:54.769Z,4812
2017-03-15T08:19:35.279Z,4972
2017-03-15T08:20:15.799Z,5036
2017-03-15T08:22:44.307Z,4980
2017-03-15T08:23:24.828Z,4948
2017-03-15T08:24:05.308Z,4820
2017-03-15T08:24:45.831Z,4696
2017-03-15T08:25:26.390Z,4612
2017-03-15T08:26:06.859Z,4544
2017-03-15T08:26:47.372Z,4480
2017-03-15T08:27:27.897Z,4424
2017-03-15T08:28:08.407Z,4388
2017-03-15T08:28:48.883Z,4372
2017-03-15T08:29:29.377Z,4376
2017-03-15T08:30:09.916Z,4368
2017-03-15T08:30:50.495Z,4356
2017-03-15T08:31:30.951Z,4324
2017-03-15T08:32:11.490Z,4316
2017-03-15T08:32:51.983Z,4292
2017-03-15T08:33:32.503Z,4268
2017-03-15T08:34:13.009Z,4284
2017-03-15T08:34:53.543Z,4320
2017-03-15T08:35:33.995Z,4404
2017-03-15T08:36:14.478Z,4492
2017-03-15T08:36:54.988Z,4588
2017-03-15T08:37:35.451Z,4668
2017-03-15T08:38:15.979Z,4804
2017-03-15T08:38:56.451Z,4936
2017-03-15T08:39:36.988Z,4988
2017-03-15T08:40:17.492Z,5036
2017-03-15T08:40:57.993Z,5060
2017-03-15T08:41:38.506Z,5044
2017-03-15T08:42:19.002Z,5004
2017-03-15T08:42:59.508Z,4900
2017-03-15T08:43:40.034Z,4784
2017-03-15T08:44:20.575Z,4672
2017-03-15T08:45:01.056Z,4620
2017-03-15T08:45:41.578Z,4588
2017-03-15T08:46:22.097Z,4392
2017-03-15T08:47:02.624Z,4244
2017-03-15T08:47:43.115Z,4108
2017-03-15T08:48:23.637Z,4028
2017-03-15T08:49:04.706Z,3948
2017-03-15T08:49:44.610Z,3888
2017-03-15T08:50:25.090Z,3784
2017-03-15T08:51:05.561Z,3680
2017-03-15T08:51:46.004Z,3624
2017-03-15T08:52:26.511Z,3548
2017-03-15T08:53:07.006Z,3472
2017-03-15T08:53:47.508Z,3436
2017-03-15T08:54:28.012Z,3424
2017-03-15T08:55:08.504Z,3364
2017-03-15T08:55:49.033Z,3312
2017-03-15T08:56:29.544Z,3324
2017-03-15T08:57:10.047Z,3352
2017-03-15T08:59:43.149Z,3272
2017-03-15T09:00:23.685Z,3288
2017-03-15T09:02:36.930Z,3340
2017-03-15T09:03:17.423Z,3360
2017-03-15T09:03:57.957Z,3392
2017-03-15T09:04:38.468Z,3428
2017-03-15T09:05:18.994Z,3472
2017-03-15T09:05:59.535Z,3508
2017-03-15T09:06:39.980Z,3528
2017-03-15T09:07:20.495Z,3548
2017-03-15T09:08:01.023Z,3572
2017-03-15T09:08:41.452Z,3604
2017-03-15T09:09:21.952Z,3620
2017-03-15T09:10:02.473Z,3632
2017-03-15T09:10:42.982Z,3628
2017-03-15T09:11:23.538Z,3712
2017-03-15T09:12:04.116Z,3704
2017-03-15T09:12:44.500Z,3680
2017-03-15T09:13:25.035Z,3656
2017-03-15T09:14:05.535Z,3560
2017-03-15T09:14:46.013Z,3580
2017-03-15T09:15:26.548Z,3700
2017-03-15T09:16:07.051Z,3688
2017-03-15T09:16:47.514Z,3616
2017-03-15T09:17:28.043Z,3716
2017-03-15T09:18:08.562Z,3824
2017-03-15T09:18:49.010Z,3860
2017-03-15T09:19:29.495Z,3904
2017-03-15T09:20:10.026Z,3980
2017-03-15T09:20:50.614Z,4076
2017-03-15T09:21:31.084Z,4188
2017-03-15T09:22:11.663Z,4304
2017-03-15T09:22:52.150Z,4420
2017-03-15T09:23:32.615Z,4540
2017-03-15T09:24:13.139Z,4684
2017-03-15T09:24:53.674Z,4836
2017-03-15T09:25:34.162Z,4992
2017-03-15T09:26:14.662Z,5176
2017-03-15T09:26:55.161Z,5340
2017-03-15T09:27:35.668Z,5468
2017-03-15T09:28:16.157Z,5588
2017-03-15T09:28:56.666Z,5664
2017-03-15T09:29:37.140Z,5736
2017-03-15T09:30:17.642Z,5768
2017-03-15T09:30:58.145Z,5784
2017-03-15T09:31:38.663Z,5828
2017-03-15T09:32:19.175Z,5872
2017-03-15T09:32:59.743Z,5936
2017-03-15T09:33:40.265Z,5988
2017-03-15T09:34:20.740Z,6060
2017-03-15T09:35:01.255Z,6100
2017-03-15T09:35:41.773Z,6160
2017-03-15T09:36:22.269Z,6160
2017-03-15T09:37:02.742Z,6144
2017-03-15T09:37:43.268Z,6104
2017-03-15T09:38:23.747Z,6096
2017-03-15T09:39:04.264Z,6156
2017-03-15T09:39:44.771Z,6212
2017-03-15T09:40:25.284Z,6228
2017-03-15T09:41:05.838Z,6188
2017-03-15T09:41:46.338Z,6132
2017-03-15T09:42:26.878Z,6100
2017-03-15T09:43:07.401Z,5932
2017-03-15T09:43:47.939Z,5952
2017-03-15T09:44:28.449Z,5980
2017-03-15T09:45:08.961Z,5912